Аэропорт: Минеральные Воды. Минеральные Воды

ICAO: URMM

METAR:
2021-10-23 01:30:00
URMM 230130Z 31003MPS 9999 NSC 03/01 Q1021 R30/090070 NOSIG RMK QFE737/0983
METAR:
2021-10-22 23:00:00
TAF URMM 222300Z 2300/2324 29003G08MPS 9999 SCT030 TX20/2312Z TN00/2303Z TEMPO 2300/2306 BKN016 TEMPO 2306/2318 10003G08MPS